sensor_id;sensor_type;location;lat;lon;timestamp;pressure;altitude;pressure_sealevel;temperature;humidity
7930;BME280;4010;42.698;23.124;2023-07-31T00:01:19;41499.88;;;-140.64;100.00
7930;BME280;4010;42.698;23.124;2023-07-31T00:03:46;45108.25;;;-140.64;100.00
7930;BME280;4010;42.698;23.124;2023-07-31T00:06:13;57250.31;;;-140.64;100.00
7930;BME280;4010;42.698;23.124;2023-07-31T00:08:39;55180.50;;;-140.64;100.00
7930;BME280;4010;42.698;23.124;2023-07-31T00:11:07;49495.03;;;-140.64;100.00
7930;BME280;4010;42.698;23.124;2023-07-31T00:13:34;38410.09;;;-140.64;100.00
7930;BME280;4010;42.698;23.124;2023-07-31T00:16:01;37123.50;;;-140.64;100.00
7930;BME280;4010;42.698;23.124;2023-07-31T00:18:27;34808.91;;;-140.64;100.00
7930;BME280;4010;42.698;23.124;2023-07-31T00:20:54;33009.78;;;-140.64;100.00
7930;BME280;4010;42.698;23.124;2023-07-31T00:23:21;31725.28;;;-140.64;100.00
7930;BME280;4010;42.698;23.124;2023-07-31T00:25:47;28131.28;;;-140.64;100.00
7930;BME280;4010;42.698;23.124;2023-07-31T00:28:15;27618.19;;;-140.64;100.00
7930;BME280;4010;42.698;23.124;2023-07-31T00:30:42;28644.47;;;-140.64;100.00
7930;BME280;4010;42.698;23.124;2023-07-31T00:33:09;34808.91;;;-140.64;100.00
7930;BME280;4010;42.698;23.124;2023-07-31T00:35:35;35580.28;;;-140.64;100.00
7930;BME280;4010;42.698;23.124;2023-07-31T00:38:02;35837.44;;;-140.64;100.00
7930;BME280;4010;42.698;23.124;2023-07-31T00:40:29;37123.50;;;-140.64;100.00
7930;BME280;4010;42.698;23.124;2023-07-31T00:42:55;39954.63;;;-140.64;100.00
7930;BME280;4010;42.698;23.124;2023-07-31T00:45:23;40727.16;;;-140.64;100.00
7930;BME280;4010;42.698;23.124;2023-07-31T00:47:52;37380.78;;;-140.64;100.00
7930;BME280;4010;42.698;23.124;2023-07-31T00:50:19;40212.13;;;-140.64;100.00
7930;BME280;4010;42.698;23.124;2023-07-31T00:52:45;39697.16;;;-140.64;100.00
7930;BME280;4010;42.698;23.124;2023-07-31T00:55:12;41242.28;;;-140.64;100.00
7930;BME280;4010;42.698;23.124;2023-07-31T00:57:41;37380.78;;;-140.64;100.00
7930;BME280;4010;42.698;23.124;2023-07-31T01:00:08;36351.81;;;-140.64;100.00
7930;BME280;4010;42.698;23.124;2023-07-31T01:02:37;34551.84;;;-140.64;100.00
7930;BME280;4010;42.698;23.124;2023-07-31T01:05:04;34551.84;;;-140.64;100.00
7930;BME280;4010;42.698;23.124;2023-07-31T01:07:36;38152.72;;;-140.64;100.00
7930;BME280;4010;42.698;23.124;2023-07-31T01:10:10;39697.16;;;-140.64;100.00
7930;BME280;4010;42.698;23.124;2023-07-31T01:12:41;39439.72;;;-140.64;100.00
7930;BME280;4010;42.698;23.124;2023-07-31T01:15:09;37895.41;;;-140.64;100.00
7930;BME280;4010;42.698;23.124;2023-07-31T01:17:38;32495.91;;;-140.64;100.00
7930;BME280;4010;42.698;23.124;2023-07-31T01:20:10;33523.72;;;-140.64;100.00
7930;BME280;4010;42.698;23.124;2023-07-31T01:22:58;33266.75;;;-140.64;100.00
7930;BME280;4010;42.698;23.124;2023-07-31T01:25:56;34037.75;;;-140.64;100.00
7930;BME280;4010;42.698;23.124;2023-07-31T01:28:28;28644.47;;;-140.64;100.00
7930;BME280;4010;42.698;23.124;2023-07-31T01:30:58;28901.09;;;-140.64;100.00
7930;BME280;4010;42.698;23.124;2023-07-31T01:33:27;31468.44;;;-140.64;100.00
7930;BME280;4010;42.698;23.124;2023-07-31T01:35:54;32239.03;;;-140.64;100.00
7930;BME280;4010;42.698;23.124;2023-07-31T01:38:22;33780.72;;;-140.64;100.00
7930;BME280;4010;42.698;23.124;2023-07-31T01:40:51;35066.00;;;-140.64;100.00
7930;BME280;4010;42.698;23.124;2023-07-31T01:43:19;34808.91;;;-140.64;100.00
7930;BME280;4010;42.698;23.124;2023-07-31T01:45:45;38667.47;;;-140.64;100.00
7930;BME280;4010;42.698;23.124;2023-07-31T01:48:12;37895.41;;;-140.64;100.00
7930;BME280;4010;42.698;23.124;2023-07-31T01:50:39;37895.41;;;-140.64;100.00
7930;BME280;4010;42.698;23.124;2023-07-31T01:53:05;39954.63;;;-140.64;100.00
7930;BME280;4010;42.698;23.124;2023-07-31T01:55:32;39954.63;;;-140.64;100.00
7930;BME280;4010;42.698;23.124;2023-07-31T01:57:59;42015.13;;;-140.64;100.00
7930;BME280;4010;42.698;23.124;2023-07-31T02:00:27;33780.72;;;-140.64;100.00
7930;BME280;4010;42.698;23.124;2023-07-31T02:02:53;36351.81;;;-140.64;100.00
7930;BME280;4010;42.698;23.124;2023-07-31T02:05:20;33523.72;;;-140.64;100.00
7930;BME280;4010;42.698;23.124;2023-07-31T02:07:47;31468.44;;;-140.64;100.00
7930;BME280;4010;42.698;23.124;2023-07-31T02:10:13;30954.81;;;-140.64;100.00
7930;BME280;4010;42.698;23.124;2023-07-31T02:12:40;31982.13;;;-140.64;100.00
7930;BME280;4010;42.698;23.124;2023-07-31T02:15:07;35837.44;;;-140.64;100.00
7930;BME280;4010;42.698;23.124;2023-07-31T02:17:35;35580.28;;;-140.64;100.00
7930;BME280;4010;42.698;23.124;2023-07-31T02:20:02;37123.50;;;-140.64;100.00
7930;BME280;4010;42.698;23.124;2023-07-31T02:22:29;38410.09;;;-140.64;100.00
7930;BME280;4010;42.698;23.124;2023-07-31T02:24:56;44076.88;;;-140.64;100.00
7930;BME280;4010;42.698;23.124;2023-07-31T02:27:22;42530.44;;;-140.64;100.00
7930;BME280;4010;42.698;23.124;2023-07-31T02:29:52;44850.38;;;-140.64;100.00
7930;BME280;4010;42.698;23.124;2023-07-31T02:32:19;45881.97;;;-140.64;100.00
7930;BME280;4010;42.698;23.124;2023-07-31T02:34:47;51819.75;;;-140.64;100.00
7930;BME280;4010;42.698;23.124;2023-07-31T02:37:14;46913.88;;;-140.64;100.00
7930;BME280;4010;42.698;23.124;2023-07-31T02:39:41;42272.78;;;-140.64;100.00
7930;BME280;4010;42.698;23.124;2023-07-31T02:42:07;46655.88;;;-140.64;100.00
7930;BME280;4010;42.698;23.124;2023-07-31T02:44:34;48204.19;;;-140.64;100.00
7930;BME280;4010;42.698;23.124;2023-07-31T02:47:00;43561.34;;;-140.64;100.00
7930;BME280;4010;42.698;23.124;2023-07-31T02:49:28;40212.13;;;-140.64;100.00
7930;BME280;4010;42.698;23.124;2023-07-31T02:51:56;44076.88;;;-140.64;100.00
7930;BME280;4010;42.698;23.124;2023-07-31T02:54:23;51561.34;;;-140.64;100.00
7930;BME280;4010;42.698;23.124;2023-07-31T02:56:49;55956.53;;;-140.64;100.00
7930;BME280;4010;42.698;23.124;2023-07-31T02:59:16;53111.94;;;-140.64;100.00
7930;BME280;4010;42.698;23.124;2023-07-31T03:01:43;53370.44;;;-140.64;100.00
7930;BME280;4010;42.698;23.124;2023-07-31T03:04:10;55697.81;;;-140.64;100.00
7930;BME280;4010;42.698;23.124;2023-07-31T03:06:36;51561.34;;;-140.64;100.00
7930;BME280;4010;42.698;23.124;2023-07-31T03:09:04;52336.56;;;-140.64;100.00
7930;BME280;4010;42.698;23.124;2023-07-31T03:11:31;50269.75;;;-140.64;100.00
7930;BME280;4010;42.698;23.124;2023-07-31T03:13:57;57250.31;;;-140.64;100.00
7930;BME280;4010;42.698;23.124;2023-07-31T03:16:24;58803.50;;;-140.64;100.00
7930;BME280;4010;42.698;23.124;2023-07-31T03:18:51;56215.25;;;-140.64;100.00
7930;BME280;4010;42.698;23.124;2023-07-31T03:21:17;61134.59;;;-140.64;100.00
7930;BME280;4010;42.698;23.124;2023-07-31T03:23:44;58803.50;;;-140.64;100.00
7930;BME280;4010;42.698;23.124;2023-07-31T03:26:12;57509.13;;;-140.64;100.00
7930;BME280;4010;42.698;23.124;2023-07-31T03:28:39;57509.13;;;-140.64;100.00
7930;BME280;4010;42.698;23.124;2023-07-31T03:31:05;62171.19;;;-140.64;100.00
7930;BME280;4010;42.698;23.124;2023-07-31T03:33:33;64245.25;;;-140.64;100.00
7930;BME280;4010;42.698;23.124;2023-07-31T03:36:00;61652.84;;;-140.64;100.00
7930;BME280;4010;42.698;23.124;2023-07-31T03:38:27;64763.97;;;-140.64;100.00
7930;BME280;4010;42.698;23.124;2023-07-31T03:40:54;60875.53;;;-140.64;100.00
7930;BME280;4010;42.698;23.124;2023-07-31T03:43:22;64504.59;;;-140.64;100.00
7930;BME280;4010;42.698;23.124;2023-07-31T03:45:48;64763.97;;;-140.64;100.00
7930;BME280;4010;42.698;23.124;2023-07-31T03:48:15;66580.09;;;-140.64;100.00
7930;BME280;4010;42.698;23.124;2023-07-31T03:50:42;74114.38;;;-140.64;100.00
7930;BME280;4010;42.698;23.124;2023-07-31T03:53:09;75154.88;;;-140.64;100.00
7930;BME280;4010;42.698;23.124;2023-07-31T03:55:35;70475.06;;;-140.64;100.00
7930;BME280;4010;42.698;23.124;2023-07-31T03:58:02;67877.94;;;-140.64;100.00
7930;BME280;4010;42.698;23.124;2023-07-31T04:00:30;66320.59;;;-140.64;100.00
7930;BME280;4010;42.698;23.124;2023-07-31T04:02:57;58026.81;;;-140.64;100.00
7930;BME280;4010;42.698;23.124;2023-07-31T04:05:24;68916.53;;;-140.64;100.00
7930;BME280;4010;42.698;23.124;2023-07-31T04:07:50;82186.59;;;-140.64;100.00
7930;BME280;4010;42.698;23.124;2023-07-31T04:10:17;85838.34;;;-140.64;100.00
7930;BME280;4010;42.698;23.124;2023-07-31T04:12:44;85838.34;;;-140.64;100.00
7930;BME280;4010;42.698;23.124;2023-07-31T04:15:10;106517.09;;;-140.64;100.00
7930;BME280;4010;42.698;23.124;2023-07-31T04:17:38;118349.16;;;-140.64;100.00
7930;BME280;4010;42.698;23.124;2023-07-31T04:20:06;117414.94;;;-140.64;100.00
7930;BME280;4010;42.698;23.124;2023-07-31T04:22:33;104417.44;;;-140.64;100.00
7930;BME280;4010;42.698;23.124;2023-07-31T04:24:59;103105.78;;;-140.64;100.00
7930;BME280;4010;42.698;23.124;2023-07-31T04:27:26;103892.72;;;-140.64;100.00
7930;BME280;4010;42.698;23.124;2023-07-31T04:29:53;106779.66;;;-140.64;100.00
7930;BME280;4010;42.698;23.124;2023-07-31T04:32:19;118349.16;;;-140.64;100.00
7930;BME280;4010;42.698;23.124;2023-07-31T04:34:47;118349.16;;;-140.64;100.00
7930;BME280;4010;42.698;23.124;2023-07-31T04:37:14;118349.16;;;-140.64;100.00
7930;BME280;4010;42.698;23.124;2023-07-31T04:39:41;118349.16;;;-140.64;100.00
7930;BME280;4010;42.698;23.124;2023-07-31T04:42:07;118349.16;;;-140.64;100.00
7930;BME280;4010;42.698;23.124;2023-07-31T04:44:35;118349.16;;;-140.64;96.58
7930;BME280;4010;42.698;23.124;2023-07-31T04:47:01;118349.16;;;-140.64;91.95
7930;BME280;4010;42.698;23.124;2023-07-31T04:49:28;118349.16;;;-140.64;83.68
7930;BME280;4010;42.698;23.124;2023-07-31T04:51:56;118349.16;;;-140.64;82.36
7930;BME280;4010;42.698;23.124;2023-07-31T04:54:23;118349.16;;;-140.64;81.92
7930;BME280;4010;42.698;23.124;2023-07-31T04:56:49;118349.16;;;-140.64;77.65
7930;BME280;4010;42.698;23.124;2023-07-31T04:59:17;118349.16;;;-140.64;70.58
7930;BME280;4010;42.698;23.124;2023-07-31T05:01:44;118349.16;;;-140.64;66.11
7930;BME280;4010;42.698;23.124;2023-07-31T05:04:12;118349.16;;;-140.64;64.92
7930;BME280;4010;42.698;23.124;2023-07-31T05:06:39;118349.16;;;-140.64;61.71
7930;BME280;4010;42.698;23.124;2023-07-31T05:09:07;118349.16;;;-140.64;58.01
7930;BME280;4010;42.698;23.124;2023-07-31T05:11:36;118349.16;;;-140.64;53.32
7930;BME280;4010;42.698;23.124;2023-07-31T05:14:02;118349.16;;;-140.64;52.83
7930;BME280;4010;42.698;23.124;2023-07-31T05:16:29;118349.16;;;-140.64;53.31
7930;BME280;4010;42.698;23.124;2023-07-31T05:18:56;118349.16;;;-140.64;52.21
7930;BME280;4010;42.698;23.124;2023-07-31T05:21:22;118349.16;;;-140.64;51.51
7930;BME280;4010;42.698;23.124;2023-07-31T05:23:49;118349.16;;;-140.64;49.58
7930;BME280;4010;42.698;23.124;2023-07-31T05:26:17;118349.16;;;-140.64;51.21
7930;BME280;4010;42.698;23.124;2023-07-31T05:28:44;118349.16;;;-140.64;47.35
7930;BME280;4010;42.698;23.124;2023-07-31T05:31:10;118349.16;;;-140.64;47.55
7930;BME280;4010;42.698;23.124;2023-07-31T05:33:37;118349.16;;;-140.64;47.89
7930;BME280;4010;42.698;23.124;2023-07-31T05:36:04;118349.16;;;-140.64;50.59
7930;BME280;4010;42.698;23.124;2023-07-31T05:38:31;118349.16;;;-140.64;51.27
7930;BME280;4010;42.698;23.124;2023-07-31T05:40:57;118349.16;;;-140.64;47.91
7930;BME280;4010;42.698;23.124;2023-07-31T05:43:25;118349.16;;;-140.64;52.49
7930;BME280;4010;42.698;23.124;2023-07-31T05:45:52;118349.16;;;-140.64;56.14
7930;BME280;4010;42.698;23.124;2023-07-31T05:48:19;118349.16;;;-140.64;51.53
7930;BME280;4010;42.698;23.124;2023-07-31T05:50:45;118349.16;;;-140.64;52.32
7930;BME280;4010;42.698;23.124;2023-07-31T05:53:12;118349.16;;;-140.64;56.71
7930;BME280;4010;42.698;23.124;2023-07-31T05:55:39;118349.16;;;-140.64;55.50
7930;BME280;4010;42.698;23.124;2023-07-31T05:58:05;118349.16;;;-140.64;54.89
7930;BME280;4010;42.698;23.124;2023-07-31T06:00:33;118349.16;;;-140.64;54.06
7930;BME280;4010;42.698;23.124;2023-07-31T06:03:00;118349.16;;;-140.64;51.47
7930;BME280;4010;42.698;23.124;2023-07-31T06:05:27;118349.16;;;-140.64;55.68
7930;BME280;4010;42.698;23.124;2023-07-31T06:07:55;118349.16;;;-140.64;62.71
7930;BME280;4010;42.698;23.124;2023-07-31T06:10:22;118349.16;;;-140.64;59.86
7930;BME280;4010;42.698;23.124;2023-07-31T06:12:48;118349.16;;;-140.64;57.43
7930;BME280;4010;42.698;23.124;2023-07-31T06:15:15;118349.16;;;-140.64;51.77
7930;BME280;4010;42.698;23.124;2023-07-31T06:17:44;118349.16;;;-140.64;47.76
7930;BME280;4010;42.698;23.124;2023-07-31T06:20:11;118349.16;;;-140.64;43.97
7930;BME280;4010;42.698;23.124;2023-07-31T06:22:38;118349.16;;;-140.64;42.89
7930;BME280;4010;42.698;23.124;2023-07-31T06:25:05;118349.16;;;-140.64;43.25
7930;BME280;4010;42.698;23.124;2023-07-31T06:27:32;118349.16;;;-140.64;40.41
7930;BME280;4010;42.698;23.124;2023-07-31T06:29:59;118349.16;;;-140.64;39.84
7930;BME280;4010;42.698;23.124;2023-07-31T06:32:25;118349.16;;;-140.64;38.42
7930;BME280;4010;42.698;23.124;2023-07-31T06:34:53;118349.16;;;-140.64;42.20
7930;BME280;4010;42.698;23.124;2023-07-31T06:37:20;118349.16;;;-140.64;37.71
7930;BME280;4010;42.698;23.124;2023-07-31T06:39:47;118349.16;;;-140.64;40.50
7930;BME280;4010;42.698;23.124;2023-07-31T06:42:13;118349.16;;;-140.64;42.35
7930;BME280;4010;42.698;23.124;2023-07-31T06:44:40;118349.16;;;-140.64;47.39
7930;BME280;4010;42.698;23.124;2023-07-31T06:47:08;118349.16;;;-140.64;51.73
7930;BME280;4010;42.698;23.124;2023-07-31T06:49:34;118349.16;;;-140.64;53.18
7930;BME280;4010;42.698;23.124;2023-07-31T06:52:03;118349.16;;;-140.64;55.23
7930;BME280;4010;42.698;23.124;2023-07-31T06:54:30;118349.16;;;-140.64;49.98
7930;BME280;4010;42.698;23.124;2023-07-31T06:56:56;118349.16;;;-140.64;44.64
7930;BME280;4010;42.698;23.124;2023-07-31T06:59:23;118349.16;;;-140.64;43.67
7930;BME280;4010;42.698;23.124;2023-07-31T07:01:49;118349.16;;;-140.64;47.32
7930;BME280;4010;42.698;23.124;2023-07-31T07:04:16;118349.16;;;-140.64;49.76
7930;BME280;4010;42.698;23.124;2023-07-31T07:06:43;118349.16;;;-140.64;52.11
7930;BME280;4010;42.698;23.124;2023-07-31T07:09:11;118349.16;;;-140.64;58.30
7930;BME280;4010;42.698;23.124;2023-07-31T07:11:37;118349.16;;;-140.64;58.43
7930;BME280;4010;42.698;23.124;2023-07-31T07:14:04;118349.16;;;-140.64;54.80
7930;BME280;4010;42.698;23.124;2023-07-31T07:16:31;118349.16;;;-140.64;56.92
7930;BME280;4010;42.698;23.124;2023-07-31T07:18:57;118349.16;;;-140.64;61.82
7930;BME280;4010;42.698;23.124;2023-07-31T07:21:24;118349.16;;;-140.64;57.52
7930;BME280;4010;42.698;23.124;2023-07-31T07:23:50;118349.16;;;-140.64;56.99
7930;BME280;4010;42.698;23.124;2023-07-31T07:26:18;118349.16;;;-140.64;59.08
7930;BME280;4010;42.698;23.124;2023-07-31T07:28:45;118349.16;;;-140.64;54.24
7930;BME280;4010;42.698;23.124;2023-07-31T07:31:12;118349.16;;;-140.64;56.19
7930;BME280;4010;42.698;23.124;2023-07-31T07:33:38;118349.16;;;-140.64;57.19
7930;BME280;4010;42.698;23.124;2023-07-31T07:36:05;118349.16;;;-140.64;57.86
7930;BME280;4010;42.698;23.124;2023-07-31T07:38:35;118349.16;;;-140.64;60.46
7930;BME280;4010;42.698;23.124;2023-07-31T07:41:01;118349.16;;;-140.64;59.73
7930;BME280;4010;42.698;23.124;2023-07-31T07:43:29;118349.16;;;-140.64;54.65
7930;BME280;4010;42.698;23.124;2023-07-31T07:45:56;118349.16;;;-140.64;56.48
7930;BME280;4010;42.698;23.124;2023-07-31T07:48:22;118349.16;;;-140.64;57.31
7930;BME280;4010;42.698;23.124;2023-07-31T07:50:50;118349.16;;;-140.64;61.97
7930;BME280;4010;42.698;23.124;2023-07-31T07:53:17;118349.16;;;-140.64;58.73
7930;BME280;4010;42.698;23.124;2023-07-31T07:55:43;118349.16;;;-140.64;58.72
7930;BME280;4010;42.698;23.124;2023-07-31T07:58:10;118349.16;;;-140.64;55.72
7930;BME280;4010;42.698;23.124;2023-07-31T08:00:38;118349.16;;;-140.64;54.96
7930;BME280;4010;42.698;23.124;2023-07-31T08:03:05;118349.16;;;-140.64;56.62
7930;BME280;4010;42.698;23.124;2023-07-31T08:05:32;118349.16;;;-140.64;53.34
7930;BME280;4010;42.698;23.124;2023-07-31T08:07:59;118349.16;;;-140.64;53.61
7930;BME280;4010;42.698;23.124;2023-07-31T08:10:26;118349.16;;;-140.64;53.61
7930;BME280;4010;42.698;23.124;2023-07-31T08:12:52;118349.16;;;-140.64;52.00
7930;BME280;4010;42.698;23.124;2023-07-31T08:15:19;118349.16;;;-140.64;55.42
7930;BME280;4010;42.698;23.124;2023-07-31T08:17:47;118349.16;;;-140.64;52.77
7930;BME280;4010;42.698;23.124;2023-07-31T08:20:14;118349.16;;;-140.64;52.93
7930;BME280;4010;42.698;23.124;2023-07-31T08:22:40;118349.16;;;-140.64;54.58
7930;BME280;4010;42.698;23.124;2023-07-31T08:25:08;118349.16;;;-140.64;54.11
7930;BME280;4010;42.698;23.124;2023-07-31T08:27:34;118349.16;;;-140.64;56.08
7930;BME280;4010;42.698;23.124;2023-07-31T08:30:01;118349.16;;;-140.64;56.64
7930;BME280;4010;42.698;23.124;2023-07-31T08:32:28;118349.16;;;-140.64;56.80
7930;BME280;4010;42.698;23.124;2023-07-31T08:34:56;118349.16;;;-140.64;55.67
7930;BME280;4010;42.698;23.124;2023-07-31T08:37:22;118349.16;;;-140.64;55.05
7930;BME280;4010;42.698;23.124;2023-07-31T08:39:49;118349.16;;;-140.64;53.09
7930;BME280;4010;42.698;23.124;2023-07-31T08:42:16;118349.16;;;-140.64;53.19
7930;BME280;4010;42.698;23.124;2023-07-31T08:44:43;118349.16;;;-140.64;53.03
7930;BME280;4010;42.698;23.124;2023-07-31T08:47:10;118349.16;;;-140.64;54.81
7930;BME280;4010;42.698;23.124;2023-07-31T08:49:38;118349.16;;;-140.64;52.85
7930;BME280;4010;42.698;23.124;2023-07-31T08:52:07;118349.16;;;-140.64;52.77
7930;BME280;4010;42.698;23.124;2023-07-31T08:54:34;118349.16;;;-140.64;52.66
7930;BME280;4010;42.698;23.124;2023-07-31T08:57:00;118349.16;;;-140.64;51.01
7930;BME280;4010;42.698;23.124;2023-07-31T08:59:29;118349.16;;;-140.64;56.47
7930;BME280;4010;42.698;23.124;2023-07-31T09:01:59;118349.16;;;-140.64;50.31
7930;BME280;4010;42.698;23.124;2023-07-31T09:04:30;118349.16;;;-140.64;53.74
7930;BME280;4010;42.698;23.124;2023-07-31T09:07:01;118349.16;;;-140.64;52.03
7930;BME280;4010;42.698;23.124;2023-07-31T09:09:30;118349.16;;;-140.64;48.04
7930;BME280;4010;42.698;23.124;2023-07-31T09:11:57;118349.16;;;-140.64;50.51
7930;BME280;4010;42.698;23.124;2023-07-31T09:14:25;118349.16;;;-140.64;50.06
7930;BME280;4010;42.698;23.124;2023-07-31T09:16:53;118349.16;;;-140.64;49.51
7930;BME280;4010;42.698;23.124;2023-07-31T09:19:26;118349.16;;;-140.64;51.12
7930;BME280;4010;42.698;23.124;2023-07-31T09:21:53;118349.16;;;-140.64;50.36
7930;BME280;4010;42.698;23.124;2023-07-31T09:24:27;118349.16;;;-140.64;46.62
7930;BME280;4010;42.698;23.124;2023-07-31T09:26:57;118349.16;;;-140.64;48.77
7930;BME280;4010;42.698;23.124;2023-07-31T09:29:25;118349.16;;;-140.64;48.16
7930;BME280;4010;42.698;23.124;2023-07-31T09:31:53;118349.16;;;-140.64;48.68
7930;BME280;4010;42.698;23.124;2023-07-31T09:34:28;118349.16;;;-140.64;48.28
7930;BME280;4010;42.698;23.124;2023-07-31T09:36:54;118349.16;;;-140.64;47.96
7930;BME280;4010;42.698;23.124;2023-07-31T09:39:22;118349.16;;;-140.64;45.82
7930;BME280;4010;42.698;23.124;2023-07-31T09:41:54;118349.16;;;-140.64;46.39
7930;BME280;4010;42.698;23.124;2023-07-31T09:44:37;118349.16;;;-140.64;46.27
7930;BME280;4010;42.698;23.124;2023-07-31T09:47:04;118349.16;;;-140.64;47.97
7930;BME280;4010;42.698;23.124;2023-07-31T09:49:31;118349.16;;;-140.64;42.89
7930;BME280;4010;42.698;23.124;2023-07-31T09:51:57;118349.16;;;-140.64;43.92
7930;BME280;4010;42.698;23.124;2023-07-31T09:54:25;118349.16;;;-140.64;49.37
7930;BME280;4010;42.698;23.124;2023-07-31T09:56:52;118349.16;;;-140.64;48.45
7930;BME280;4010;42.698;23.124;2023-07-31T09:59:20;118349.16;;;-140.64;42.72
7930;BME280;4010;42.698;23.124;2023-07-31T10:01:48;118349.16;;;-140.64;44.77
7930;BME280;4010;42.698;23.124;2023-07-31T10:04:16;118349.16;;;-140.64;44.57
7930;BME280;4010;42.698;23.124;2023-07-31T10:06:46;118349.16;;;-140.64;44.39
7930;BME280;4010;42.698;23.124;2023-07-31T10:09:18;118349.16;;;-140.64;44.03
7930;BME280;4010;42.698;23.124;2023-07-31T10:11:47;118349.16;;;-140.64;44.89
7930;BME280;4010;42.698;23.124;2023-07-31T10:14:18;118349.16;;;-140.64;43.30
7930;BME280;4010;42.698;23.124;2023-07-31T10:16:48;118349.16;;;-140.64;45.69
7930;BME280;4010;42.698;23.124;2023-07-31T10:19:16;118349.16;;;-140.64;45.38
7930;BME280;4010;42.698;23.124;2023-07-31T10:21:43;118349.16;;;-140.64;46.09
7930;BME280;4010;42.698;23.124;2023-07-31T10:24:11;118349.16;;;-140.64;50.36
7930;BME280;4010;42.698;23.124;2023-07-31T10:26:38;118349.16;;;-140.64;48.61
7930;BME280;4010;42.698;23.124;2023-07-31T10:29:05;118349.16;;;-140.64;41.57
7930;BME280;4010;42.698;23.124;2023-07-31T10:31:33;118349.16;;;-140.64;45.78
7930;BME280;4010;42.698;23.124;2023-07-31T10:34:02;118349.16;;;-140.64;45.20
7930;BME280;4010;42.698;23.124;2023-07-31T10:36:29;118349.16;;;-140.64;42.77
7930;BME280;4010;42.698;23.124;2023-07-31T10:38:56;118349.16;;;-140.64;43.10
7930;BME280;4010;42.698;23.124;2023-07-31T10:41:28;118349.16;;;-140.64;41.78
7930;BME280;4010;42.698;23.124;2023-07-31T10:43:57;118349.16;;;-140.64;43.91
7930;BME280;4010;42.698;23.124;2023-07-31T10:46:24;118349.16;;;-140.64;41.16
7930;BME280;4010;42.698;23.124;2023-07-31T10:48:57;118349.16;;;-140.64;41.67
7930;BME280;4010;42.698;23.124;2023-07-31T10:51:32;118349.16;;;-140.64;40.33
7930;BME280;4010;42.698;23.124;2023-07-31T10:54:10;118349.16;;;-140.64;39.79
7930;BME280;4010;42.698;23.124;2023-07-31T10:56:38;118349.16;;;-140.64;39.25
7930;BME280;4010;42.698;23.124;2023-07-31T10:59:05;118349.16;;;-140.64;41.17
7930;BME280;4010;42.698;23.124;2023-07-31T11:01:49;118349.16;;;-140.64;43.08
7930;BME280;4010;42.698;23.124;2023-07-31T11:04:21;118349.16;;;-140.64;41.54
7930;BME280;4010;42.698;23.124;2023-07-31T11:06:57;118349.16;;;-140.64;42.84
7930;BME280;4010;42.698;23.124;2023-07-31T11:09:27;118349.16;;;-140.64;42.79
7930;BME280;4010;42.698;23.124;2023-07-31T11:11:55;118349.16;;;-140.64;42.99
7930;BME280;4010;42.698;23.124;2023-07-31T11:14:22;118349.16;;;-140.64;40.79
7930;BME280;4010;42.698;23.124;2023-07-31T11:16:50;118349.16;;;-140.64;41.65
7930;BME280;4010;42.698;23.124;2023-07-31T11:19:21;118349.16;;;-140.64;40.35
7930;BME280;4010;42.698;23.124;2023-07-31T11:21:48;118349.16;;;-140.64;41.75
7930;BME280;4010;42.698;23.124;2023-07-31T11:24:16;118349.16;;;-140.64;42.25
7930;BME280;4010;42.698;23.124;2023-07-31T11:26:49;118349.16;;;-140.64;45.51
7930;BME280;4010;42.698;23.124;2023-07-31T11:29:15;118349.16;;;-140.64;42.51
7930;BME280;4010;42.698;23.124;2023-07-31T11:31:42;118349.16;;;-140.64;43.49
7930;BME280;4010;42.698;23.124;2023-07-31T11:34:09;118349.16;;;-140.64;42.25
7930;BME280;4010;42.698;23.124;2023-07-31T11:36:36;118349.16;;;-140.64;44.53
7930;BME280;4010;42.698;23.124;2023-07-31T11:39:06;118349.16;;;-140.64;41.08
7930;BME280;4010;42.698;23.124;2023-07-31T11:41:35;118349.16;;;-140.64;40.59
7930;BME280;4010;42.698;23.124;2023-07-31T11:44:01;118349.16;;;-140.64;42.91
7930;BME280;4010;42.698;23.124;2023-07-31T11:46:30;118349.16;;;-140.64;43.96
7930;BME280;4010;42.698;23.124;2023-07-31T11:48:59;118349.16;;;-140.64;43.13
7930;BME280;4010;42.698;23.124;2023-07-31T11:51:27;118349.16;;;-140.64;41.84
7930;BME280;4010;42.698;23.124;2023-07-31T11:53:57;118349.16;;;-140.64;42.88
7930;BME280;4010;42.698;23.124;2023-07-31T11:56:25;118349.16;;;-140.64;41.32
7930;BME280;4010;42.698;23.124;2023-07-31T11:58:57;118349.16;;;-140.64;40.09
7930;BME280;4010;42.698;23.124;2023-07-31T12:01:26;118349.16;;;-140.64;43.28
7930;BME280;4010;42.698;23.124;2023-07-31T12:03:54;118349.16;;;-140.64;42.18
7930;BME280;4010;42.698;23.124;2023-07-31T12:06:21;118349.16;;;-140.64;41.09
7930;BME280;4010;42.698;23.124;2023-07-31T12:08:48;118349.16;;;-140.64;40.61
7930;BME280;4010;42.698;23.124;2023-07-31T12:11:15;118349.16;;;-140.64;40.73
7930;BME280;4010;42.698;23.124;2023-07-31T12:13:43;118349.16;;;-140.64;42.53
7930;BME280;4010;42.698;23.124;2023-07-31T12:16:11;118349.16;;;-140.64;40.56
7930;BME280;4010;42.698;23.124;2023-07-31T12:18:38;118349.16;;;-140.64;39.53
7930;BME280;4010;42.698;23.124;2023-07-31T12:21:07;118349.16;;;-140.64;41.57
7930;BME280;4010;42.698;23.124;2023-07-31T12:23:37;118349.16;;;-140.64;41.80
7930;BME280;4010;42.698;23.124;2023-07-31T12:26:07;118349.16;;;-140.64;41.04
7930;BME280;4010;42.698;23.124;2023-07-31T12:28:38;118349.16;;;-140.64;39.30
7930;BME280;4010;42.698;23.124;2023-07-31T12:31:05;118349.16;;;-140.64;39.40
7930;BME280;4010;42.698;23.124;2023-07-31T12:33:34;118349.16;;;-140.64;39.90
7930;BME280;4010;42.698;23.124;2023-07-31T12:36:03;118349.16;;;-140.64;40.43
7930;BME280;4010;42.698;23.124;2023-07-31T12:38:30;118349.16;;;-140.64;40.14
7930;BME280;4010;42.698;23.124;2023-07-31T12:40:57;118349.16;;;-140.64;40.07
7930;BME280;4010;42.698;23.124;2023-07-31T12:43:23;118349.16;;;-140.64;39.49